Avoca, Iowa
Current Conditions -  °F | °C
As of 7:55 AM on Saturday 22 Nov 2014 (Local Time) from KHNR Reporting Station
Haze Haze  
Wind Chill: 33°   Ceiling: 300
Heat Index: 37°   Visibility: 1.2mi
Dew Point: 37°   Wind: 6mph
Humidity: 100%   Direction: 190°S
Pressure: 29.89"   Gusts: NA
Location:  41.48°N, 95.34°W
Report Text: KHNR 221355Z AUTO 19005KT 1 1/4SM BR OVC003 03/03 A2989 RMK AO2
Loading
Personal Weather Stations






























Interactive Weather Map New forecast layout! Learn more

10-Day Weather Forecast

Advertisements
Track Severe Weather on mobile